Phoenix, Arizona
Current Conditions -  °F | °C
As of 10:51 AM on Thursday 30 Oct 2014 (Local Time) from KPHX Reporting Station
Scattered Clouds Scattered Clouds  
Wind Chill: 84°   Ceiling: Unl
Heat Index: 84°   Visibility: 10mi
Dew Point: 38°   Wind: 6mph
Humidity: 19%   Direction: 90°E
Pressure: 30.01"   Gusts: NA
Location:  33.45°N, 112.08°W
Report Text: KPHX 301751Z 09005KT 10SM SCT250 29/03 A3001 RMK AO2 SLP147 T02890033 10289 20178 58001
Loading
Personal Weather Stations






























Interactive Weather Map
Tropical Storm Tracking
New forecast layout! Learn more

10-Day Weather Forecast

Advertisements
Track Severe Weather on mobile